createdAt,value
2018-08-19T00:01:46.160Z,2.60
2018-08-19T00:04:55.211Z,2.17
2018-08-19T00:08:06.180Z,2.73
2018-08-19T00:11:20.003Z,2.50
2018-08-19T00:14:36.532Z,2.27
2018-08-19T00:17:47.192Z,2.57
2018-08-19T00:20:57.812Z,2.50
2018-08-19T00:24:07.280Z,2.60
2018-08-19T00:27:16.342Z,2.33
2018-08-19T00:30:26.262Z,2.80
2018-08-19T00:33:35.069Z,2.57
2018-08-19T00:36:50.023Z,2.33
2018-08-19T00:39:59.122Z,2.30
2018-08-19T00:43:11.093Z,2.50
2018-08-19T00:46:23.582Z,2.50
2018-08-19T00:49:32.064Z,2.43
2018-08-19T00:52:42.330Z,2.33
2018-08-19T00:55:56.269Z,2.50
2018-08-19T00:59:05.238Z,2.60
2018-08-19T01:02:15.340Z,2.70
2018-08-19T01:05:25.220Z,2.60
2018-08-19T01:08:34.980Z,2.17
2018-08-19T01:11:49.810Z,2.47
2018-08-19T01:14:59.692Z,2.00
2018-08-19T01:18:10.204Z,2.30
2018-08-19T01:21:28.390Z,2.63
2018-08-19T01:24:37.672Z,2.90
2018-08-19T01:27:47.615Z,2.30
2018-08-19T01:30:57.486Z,2.50
2018-08-19T01:34:05.677Z,2.57
2018-08-19T01:37:13.454Z,2.43
2018-08-19T01:40:23.600Z,2.60
2018-08-19T01:43:32.434Z,2.57
2018-08-19T01:46:41.707Z,2.47
2018-08-19T01:49:50.028Z,2.63
2018-08-19T01:52:59.852Z,2.33
2018-08-19T01:56:08.232Z,2.50
2018-08-19T01:59:17.243Z,2.57
2018-08-19T02:02:27.804Z,2.27
2018-08-19T02:05:36.856Z,2.60
2018-08-19T02:08:44.672Z,2.37
2018-08-19T02:11:57.596Z,2.70
2018-08-19T02:15:06.860Z,2.37
2018-08-19T02:18:16.305Z,2.13
2018-08-19T02:21:24.662Z,2.60
2018-08-19T02:24:33.880Z,2.60
2018-08-19T02:27:42.308Z,2.53
2018-08-19T02:30:54.951Z,2.87
2018-08-19T02:34:05.180Z,2.50
2018-08-19T02:37:20.346Z,2.70
2018-08-19T02:40:33.628Z,2.63
2018-08-19T02:43:41.970Z,2.30
2018-08-19T02:46:51.263Z,2.70
2018-08-19T02:50:01.446Z,2.50
2018-08-19T02:53:10.222Z,2.73
2018-08-19T02:56:19.858Z,2.43
2018-08-19T02:59:30.167Z,2.23
2018-08-19T03:02:46.530Z,2.60
2018-08-19T03:05:58.816Z,2.07
2018-08-19T03:09:09.748Z,2.50
2018-08-19T03:12:25.806Z,2.60
2018-08-19T03:15:34.118Z,2.37
2018-08-19T03:18:44.302Z,2.60
2018-08-19T03:21:52.580Z,2.40
2018-08-19T03:25:01.692Z,2.50
2018-08-19T03:28:11.615Z,2.70
2018-08-19T03:31:20.114Z,2.60
2018-08-19T03:34:29.796Z,2.50
2018-08-19T03:37:41.895Z,2.93
2018-08-19T03:40:53.746Z,2.40
2018-08-19T03:44:06.771Z,2.40
2018-08-19T03:47:18.508Z,2.53
2018-08-19T03:50:31.133Z,2.30
2018-08-19T03:53:40.292Z,2.47
2018-08-19T03:56:49.670Z,2.83
2018-08-19T03:59:59.340Z,2.40
2018-08-19T04:03:07.406Z,2.37
2018-08-19T04:06:19.328Z,2.37
2018-08-19T04:09:27.230Z,2.67
2018-08-19T04:12:47.358Z,2.40
2018-08-19T04:15:55.722Z,2.60
2018-08-19T04:19:13.280Z,2.80
2018-08-19T04:22:26.524Z,2.53
2018-08-19T04:25:44.442Z,2.57
2018-08-19T04:28:54.755Z,2.30
2018-08-19T04:32:03.682Z,2.60
2018-08-19T04:35:12.607Z,2.67
2018-08-19T04:38:21.494Z,2.47
2018-08-19T04:41:32.428Z,2.60
2018-08-19T04:44:41.372Z,2.70
2018-08-19T04:47:52.605Z,3.10
2018-08-19T04:51:01.456Z,2.63
2018-08-19T04:54:10.265Z,2.47
2018-08-19T04:57:19.108Z,2.30
2018-08-19T05:00:27.683Z,2.60
2018-08-19T05:03:35.506Z,2.87
2018-08-19T05:06:44.534Z,2.50
2018-08-19T05:09:53.792Z,2.73
2018-08-19T05:13:02.845Z,2.77
2018-08-19T05:16:12.519Z,2.80
2018-08-19T05:19:21.895Z,2.50
2018-08-19T05:22:32.054Z,2.60
2018-08-19T05:25:40.955Z,2.43
2018-08-19T05:28:48.837Z,2.97
2018-08-19T05:32:03.635Z,2.53
2018-08-19T05:35:12.382Z,2.80
2018-08-19T05:38:21.552Z,2.53
2018-08-19T05:41:31.306Z,2.73
2018-08-19T05:44:44.956Z,2.50
2018-08-19T05:47:53.279Z,2.40
2018-08-19T05:51:02.330Z,2.37
2018-08-19T05:54:11.783Z,2.83
2018-08-19T05:57:20.436Z,2.80
2018-08-19T06:00:31.891Z,2.60
2018-08-19T06:03:40.251Z,2.70
2018-08-19T06:06:49.476Z,2.60
2018-08-19T06:09:58.213Z,2.70
2018-08-19T06:13:07.789Z,2.70
2018-08-19T06:16:16.726Z,2.50
2018-08-19T06:19:25.265Z,2.93
2018-08-19T06:22:41.212Z,3.00
2018-08-19T06:25:50.786Z,2.60
2018-08-19T06:28:58.896Z,2.60
2018-08-19T06:32:07.421Z,2.37
2018-08-19T06:35:17.222Z,2.70
2018-08-19T06:38:26.889Z,2.90
2018-08-19T06:41:35.653Z,2.80
2018-08-19T06:44:44.643Z,3.00
2018-08-19T06:47:54.145Z,2.37
2018-08-19T06:51:03.963Z,2.77
2018-08-19T06:54:14.133Z,2.90
2018-08-19T06:57:25.797Z,2.47
2018-08-19T07:00:37.562Z,2.97
2018-08-19T07:03:47.592Z,2.50
2018-08-19T07:06:57.977Z,2.80
2018-08-19T07:10:08.476Z,2.50
2018-08-19T07:13:18.853Z,2.53
2018-08-19T07:16:28.133Z,2.63
2018-08-19T07:19:36.893Z,2.80
2018-08-19T07:22:45.305Z,2.87
2018-08-19T07:25:55.207Z,2.30
2018-08-19T07:29:04.675Z,2.60
2018-08-19T07:32:13.100Z,2.60
2018-08-19T07:35:22.679Z,2.40
2018-08-19T07:38:32.483Z,2.50
2018-08-19T07:41:42.425Z,2.87
2018-08-19T07:44:51.606Z,2.90
2018-08-19T07:48:00.032Z,2.43
2018-08-19T07:51:08.247Z,2.80
2018-08-19T07:54:17.719Z,2.70
2018-08-19T07:57:33.706Z,2.80
2018-08-19T08:00:46.484Z,2.70
2018-08-19T08:03:56.227Z,3.23
2018-08-19T08:07:05.311Z,2.80
2018-08-19T08:10:14.149Z,2.63
2018-08-19T08:13:23.727Z,2.60
2018-08-19T08:16:33.203Z,3.00
2018-08-19T08:19:43.603Z,2.80
2018-08-19T08:22:54.374Z,3.03
2018-08-19T08:26:05.372Z,2.40
2018-08-19T08:29:14.477Z,2.60
2018-08-19T08:32:23.374Z,2.70
2018-08-19T08:35:47.881Z,2.87
2018-08-19T08:38:56.204Z,2.73
2018-08-19T08:42:05.563Z,2.60
2018-08-19T08:45:14.532Z,2.57
2018-08-19T08:48:23.249Z,2.73
2018-08-19T08:51:31.583Z,3.03
2018-08-19T08:54:41.879Z,3.00
2018-08-19T08:57:50.621Z,2.50
2018-08-19T09:00:58.427Z,2.73
2018-08-19T09:04:07.367Z,3.00
2018-08-19T09:07:16.899Z,2.57
2018-08-19T09:10:26.783Z,2.77
2018-08-19T09:13:35.104Z,2.70
2018-08-19T09:16:40.609Z,3.17
2018-08-19T09:19:51.161Z,3.00
2018-08-19T09:23:00.059Z,2.80
2018-08-19T09:26:09.061Z,3.13
2018-08-19T09:29:19.155Z,2.77
2018-08-19T09:32:29.880Z,3.13
2018-08-19T09:35:40.449Z,3.10
2018-08-19T09:38:49.237Z,3.00
2018-08-19T09:41:59.336Z,2.70
2018-08-19T09:45:08.591Z,3.07
2018-08-19T09:48:17.231Z,3.17
2018-08-19T09:51:25.694Z,2.50
2018-08-19T09:54:39.305Z,3.00
2018-08-19T09:57:53.271Z,3.10
2018-08-19T10:02:06.650Z,2.67
2018-08-19T10:05:19.991Z,2.90
2018-08-19T10:08:30.304Z,2.87
2018-08-19T10:11:39.496Z,3.20
2018-08-19T10:14:47.981Z,2.90
2018-08-19T10:17:56.717Z,2.73
2018-08-19T10:21:06.506Z,3.07
2018-08-19T10:24:16.391Z,2.90
2018-08-19T10:27:27.114Z,3.20
2018-08-19T10:30:36.169Z,2.97
2018-08-19T10:33:48.985Z,3.17
2018-08-19T10:36:56.832Z,3.27
2018-08-19T10:40:06.041Z,2.77
2018-08-19T10:43:23.462Z,2.97
2018-08-19T10:46:32.711Z,3.00
2018-08-19T10:49:40.962Z,3.00
2018-08-19T10:52:51.953Z,3.20
2018-08-19T10:55:59.883Z,2.93
2018-08-19T10:59:10.051Z,3.40
2018-08-19T11:02:19.851Z,2.80
2018-08-19T11:05:29.635Z,3.13
2018-08-19T11:08:39.205Z,3.40
2018-08-19T11:11:48.929Z,3.20
2018-08-19T11:14:58.907Z,2.90
2018-08-19T11:18:08.662Z,3.23
2018-08-19T11:21:24.165Z,2.97
2018-08-19T11:24:37.629Z,3.40
2018-08-19T11:27:47.615Z,3.30
2018-08-19T11:30:56.742Z,3.00
2018-08-19T11:34:09.591Z,3.37
2018-08-19T11:37:19.293Z,3.30
2018-08-19T11:40:29.886Z,3.00
2018-08-19T11:43:39.771Z,3.00
2018-08-19T11:46:48.416Z,3.47
2018-08-19T11:49:57.368Z,3.43
2018-08-19T11:53:07.248Z,3.00
2018-08-19T11:56:14.835Z,2.73
2018-08-19T11:59:23.050Z,3.10
2018-08-19T12:02:34.822Z,2.90
2018-08-19T12:05:43.348Z,3.10
2018-08-19T12:08:53.035Z,2.80
2018-08-19T12:12:02.186Z,2.53
2018-08-19T12:15:11.244Z,2.97
2018-08-19T12:18:19.244Z,3.07
2018-08-19T12:21:27.462Z,2.90
2018-08-19T12:24:42.383Z,2.80
2018-08-19T12:27:52.789Z,3.00
2018-08-19T12:31:02.660Z,2.80
2018-08-19T12:34:11.608Z,2.90
2018-08-19T12:37:20.980Z,2.73
2018-08-19T12:40:35.882Z,3.07
2018-08-19T12:43:44.822Z,2.70
2018-08-19T12:46:54.114Z,3.10
2018-08-19T12:50:05.073Z,2.90
2018-08-19T12:53:14.486Z,3.13
2018-08-19T12:56:23.434Z,2.60
2018-08-19T12:59:33.425Z,2.90
2018-08-19T13:02:45.610Z,3.10
2018-08-19T13:06:02.286Z,3.00
2018-08-19T13:09:11.128Z,3.00
2018-08-19T13:12:21.762Z,2.73
2018-08-19T13:15:31.851Z,2.73
2018-08-19T13:18:48.839Z,2.50
2018-08-19T13:21:58.542Z,2.60
2018-08-19T13:25:07.986Z,2.90
2018-08-19T13:28:17.468Z,2.33
2018-08-19T13:31:30.477Z,2.60
2018-08-19T13:34:39.112Z,2.90
2018-08-19T13:37:47.378Z,2.80
2018-08-19T13:40:59.518Z,2.97
2018-08-19T13:44:08.360Z,2.37
2018-08-19T13:47:18.667Z,2.90
2018-08-19T13:50:27.939Z,2.93
2018-08-19T13:53:37.052Z,2.83
2018-08-19T13:56:46.346Z,3.10
2018-08-19T13:59:56.020Z,2.53
2018-08-19T14:03:06.850Z,2.83
2018-08-19T14:06:16.634Z,2.60
2018-08-19T14:09:28.490Z,2.83
2018-08-19T14:12:40.480Z,2.53
2018-08-19T14:15:50.801Z,2.77
2018-08-19T14:19:01.386Z,2.80
2018-08-19T14:22:10.872Z,2.70
2018-08-19T14:25:19.417Z,2.57
2018-08-19T14:28:28.884Z,2.80
2018-08-19T14:31:38.347Z,2.97
2018-08-19T14:34:46.771Z,3.13
2018-08-19T14:37:57.692Z,3.10
2018-08-19T14:41:08.277Z,2.77
2018-08-19T14:44:21.654Z,2.73
2018-08-19T14:47:30.710Z,2.70
2018-08-19T14:50:41.643Z,2.80
2018-08-19T14:53:50.701Z,2.70
2018-08-19T14:56:59.935Z,2.80
2018-08-19T15:00:09.246Z,2.87
2018-08-19T15:03:18.166Z,3.03
2018-08-19T15:06:31.918Z,2.83
2018-08-19T15:09:45.444Z,2.80
2018-08-19T15:12:55.349Z,3.20
2018-08-19T15:16:04.400Z,2.90
2018-08-19T15:19:12.972Z,3.03
2018-08-19T15:22:23.228Z,2.90
2018-08-19T15:25:34.371Z,3.13
2018-08-19T15:28:43.385Z,3.10
2018-08-19T15:31:53.568Z,2.90
2018-08-19T15:35:05.084Z,3.37
2018-08-19T15:38:14.970Z,3.03
2018-08-19T15:41:25.311Z,2.80
2018-08-19T15:44:34.333Z,3.40
2018-08-19T15:47:46.722Z,3.30
2018-08-19T15:50:58.700Z,3.13
2018-08-19T15:54:07.854Z,3.30
2018-08-19T15:57:20.400Z,3.27
2018-08-19T16:00:31.185Z,3.63
2018-08-19T16:03:40.341Z,3.40
2018-08-19T16:06:48.356Z,3.50
2018-08-19T16:09:59.281Z,3.40
2018-08-19T16:13:08.329Z,3.30
2018-08-19T16:16:24.494Z,2.97
2018-08-19T16:19:34.001Z,3.43
2018-08-19T16:22:41.942Z,3.10
2018-08-19T16:25:54.778Z,3.07
2018-08-19T16:29:03.806Z,2.93
2018-08-19T16:32:13.926Z,3.57
2018-08-19T16:35:25.102Z,3.10
2018-08-19T16:38:34.520Z,3.50
2018-08-19T16:41:43.394Z,3.13
2018-08-19T16:44:52.497Z,3.40
2018-08-19T16:48:00.655Z,3.40
2018-08-19T16:51:09.842Z,3.40
2018-08-19T16:54:19.171Z,3.80
2018-08-19T16:57:29.319Z,4.03
2018-08-19T17:00:38.097Z,3.50
2018-08-19T17:03:53.224Z,3.57
2018-08-19T17:07:06.516Z,3.33
2018-08-19T17:10:16.514Z,3.50
2018-08-19T17:13:26.257Z,3.23
2018-08-19T17:16:37.366Z,3.03
2018-08-19T17:19:45.965Z,3.23
2018-08-19T17:22:56.960Z,3.33
2018-08-19T17:26:05.390Z,3.40
2018-08-19T17:29:21.464Z,3.50
2018-08-19T17:32:31.266Z,3.70
2018-08-19T17:35:42.361Z,3.73
2018-08-19T17:38:53.160Z,3.40
2018-08-19T17:42:02.949Z,3.20
2018-08-19T17:45:11.684Z,3.80
2018-08-19T17:48:21.680Z,3.53
2018-08-19T17:51:40.330Z,3.90
2018-08-19T17:54:50.018Z,4.00
2018-08-19T17:57:59.072Z,3.47
2018-08-19T18:01:09.792Z,3.43
2018-08-19T18:04:20.110Z,3.83
2018-08-19T18:07:34.058Z,3.77
2018-08-19T18:10:43.240Z,3.50
2018-08-19T18:13:55.195Z,3.77
2018-08-19T18:17:05.296Z,3.70
2018-08-19T18:20:14.233Z,3.90
2018-08-19T18:23:31.120Z,3.70
2018-08-19T18:26:42.218Z,3.53
2018-08-19T18:29:55.926Z,3.60
2018-08-19T18:33:04.130Z,3.50
2018-08-19T18:36:13.896Z,3.60
2018-08-19T18:39:25.676Z,3.37
2018-08-19T18:42:43.613Z,3.00
2018-08-19T18:45:56.185Z,3.40
2018-08-19T18:49:11.735Z,3.53
2018-08-19T18:52:27.650Z,3.67
2018-08-19T18:55:36.120Z,3.43
2018-08-19T18:58:45.134Z,3.60
2018-08-19T19:01:54.968Z,3.20
2018-08-19T19:05:11.009Z,3.10
2018-08-19T19:08:26.632Z,3.53
2018-08-19T19:11:39.790Z,3.57
2018-08-19T19:14:49.389Z,3.43
2018-08-19T19:17:58.799Z,3.20
2018-08-19T19:21:13.533Z,3.40
2018-08-19T19:24:22.639Z,3.40
2018-08-19T19:27:34.382Z,3.20
2018-08-19T19:30:45.000Z,3.37
2018-08-19T19:33:53.357Z,2.83
2018-08-19T19:37:02.208Z,2.87
2018-08-19T19:40:18.018Z,3.20
2018-08-19T19:43:25.594Z,3.20
2018-08-19T19:46:35.206Z,3.43
2018-08-19T19:49:44.072Z,3.17
2018-08-19T19:52:57.810Z,3.10
2018-08-19T19:56:15.316Z,2.93
2018-08-19T19:59:25.736Z,2.83
2018-08-19T20:02:43.536Z,2.90
2018-08-19T20:05:56.165Z,2.97
2018-08-19T20:09:07.320Z,3.10
2018-08-19T20:12:18.540Z,2.90
2018-08-19T20:15:27.847Z,3.03
2018-08-19T20:18:37.273Z,3.30
2018-08-19T20:21:46.310Z,3.20
2018-08-19T20:24:54.831Z,3.20
2018-08-19T20:28:09.194Z,3.33
2018-08-19T20:31:17.032Z,2.90
2018-08-19T20:34:27.903Z,3.00
2018-08-19T20:37:39.733Z,2.87
2018-08-19T20:40:48.770Z,2.87
2018-08-19T20:43:58.888Z,3.00
2018-08-19T20:47:07.307Z,2.73
2018-08-19T20:50:17.823Z,2.70
2018-08-19T20:53:28.439Z,2.67
2018-08-19T20:56:39.695Z,2.80
2018-08-19T20:59:50.117Z,3.10
2018-08-19T21:02:59.151Z,3.00
2018-08-19T21:06:08.537Z,2.97
2018-08-19T21:09:17.455Z,2.83
2018-08-19T21:12:26.633Z,2.90
2018-08-19T21:15:40.999Z,2.90
2018-08-19T21:18:50.781Z,2.70
2018-08-19T21:22:00.255Z,2.83
2018-08-19T21:25:09.935Z,3.20
2018-08-19T21:28:19.923Z,2.60
2018-08-19T21:31:28.669Z,3.10
2018-08-19T21:34:37.298Z,2.80
2018-08-19T21:37:45.100Z,2.73
2018-08-19T21:40:53.563Z,2.50
2018-08-19T21:44:02.788Z,2.87
2018-08-19T21:47:11.833Z,2.47
2018-08-19T21:50:19.628Z,2.63
2018-08-19T21:53:30.149Z,2.23
2018-08-19T21:56:38.152Z,2.97
2018-08-19T21:59:47.624Z,2.40
2018-08-19T22:04:01.336Z,2.30
2018-08-19T22:07:09.858Z,2.30
2018-08-19T22:10:20.900Z,2.47
2018-08-19T22:13:32.140Z,2.60
2018-08-19T22:16:42.352Z,2.63
2018-08-19T22:19:50.294Z,2.50
2018-08-19T22:22:58.068Z,2.60
2018-08-19T22:26:07.520Z,2.37
2018-08-19T22:29:26.400Z,2.30
2018-08-19T22:32:35.730Z,2.43
2018-08-19T22:35:44.883Z,2.57
2018-08-19T22:38:53.020Z,2.40
2018-08-19T22:42:02.388Z,2.37
2018-08-19T22:45:11.098Z,2.43
2018-08-19T22:48:20.070Z,2.70
2018-08-19T22:51:31.422Z,2.20
2018-08-19T22:54:41.553Z,2.30
2018-08-19T22:57:50.044Z,2.63
2018-08-19T23:00:59.719Z,2.63
2018-08-19T23:04:13.896Z,2.50
2018-08-19T23:07:21.944Z,2.47
2018-08-19T23:10:30.438Z,2.20
2018-08-19T23:13:48.678Z,2.33
2018-08-19T23:16:56.794Z,2.30
2018-08-19T23:20:08.170Z,2.13
2018-08-19T23:23:17.522Z,2.07
2018-08-19T23:26:26.228Z,2.10
2018-08-19T23:29:34.494Z,2.23
2018-08-19T23:32:42.462Z,2.27
2018-08-19T23:35:52.668Z,2.50
2018-08-19T23:39:01.571Z,2.13
2018-08-19T23:42:10.356Z,2.07
2018-08-19T23:45:18.885Z,2.00
2018-08-19T23:48:27.828Z,2.27
2018-08-19T23:51:38.968Z,2.27
2018-08-19T23:54:47.370Z,2.23
2018-08-19T23:57:56.262Z,2.13
